Time,TemperatureF,DewpointF,PressureIn,WindDirection,WindDirectionDegrees,WindSpeedMPH,WindSpeedGustMPH,Humidity,HourlyPrecipIn,Conditions,Clouds,dailyrainin,SoftwareType,DateUTC
2013-07-13 00:02:00,68.0,68.0,29.99,ENE,62,12.7,-999.9,100,-99.99,,,-99.99,,2013-07-13 04:02:00,
2013-07-13 00:06:00,68.0,68.0,29.99,ENE,62,12.7,-999.9,100,-99.99,,,-99.99,,2013-07-13 04:06:00,
2013-07-13 00:12:00,68.0,68.0,30.00,East,83,5.8,-999.9,100,-99.99,,,-99.99,,2013-07-13 04:12:00,
2013-07-13 00:14:00,68.0,68.0,30.00,East,83,5.8,-999.9,100,-99.99,,,-99.99,,2013-07-13 04:14:00,
2013-07-13 00:20:00,68.0,68.0,30.00,East,83,5.8,-999.9,100,-99.99,,,-99.99,,2013-07-13 04:20:00,
2013-07-13 00:22:00,68.0,68.0,30.00,East,95,4.6,-999.9,100,-99.99,,,-99.99,,2013-07-13 04:22:00,
2013-07-13 00:28:00,68.0,68.0,30.00,East,95,4.6,-999.9,100,-99.99,,,-99.99,,2013-07-13 04:28:00,
2013-07-13 00:34:00,68.0,66.2,30.00,East,99,5.8,-999.9,94,-99.99,,,-99.99,,2013-07-13 04:34:00,
2013-07-13 00:40:00,68.0,66.2,30.00,East,99,5.8,-999.9,94,-99.99,,,-99.99,,2013-07-13 04:40:00,
2013-07-13 00:46:00,68.0,66.2,30.00,East,95,3.5,-999.9,94,-99.99,,,-99.99,,2013-07-13 04:46:00,
2013-07-13 00:52:00,69.8,68.0,30.00,East,80,4.6,-999.9,94,-99.99,,,-99.99,,2013-07-13 04:52:00,
2013-07-13 00:58:00,69.8,68.0,30.00,East,80,4.6,-999.9,94,-99.99,,,-99.99,,2013-07-13 04:58:00,
2013-07-13 01:04:00,68.0,66.2,30.01,ENE,57,6.9,-999.9,94,-99.99,,,-99.99,,2013-07-13 05:04:00,
2013-07-13 01:10:00,68.0,66.2,30.01,ENE,57,6.9,-999.9,94,-99.99,,,-99.99,,2013-07-13 05:10:00,
2013-07-13 01:22:00,68.0,66.2,30.01,ENE,67,4.6,-999.9,94,-99.99,,,-99.99,,2013-07-13 05:22:00,
2013-07-13 01:28:00,68.0,66.2,30.01,ENE,67,4.6,-999.9,94,-99.99,,,-99.99,,2013-07-13 05:28:00,
2013-07-13 02:02:00,68.0,66.2,30.01,ENE,59,10.4,-999.9,94,-99.99,,,-99.99,,2013-07-13 06:02:00,
2013-07-13 02:08:00,68.0,66.2,30.01,ENE,59,10.4,-999.9,94,-99.99,,,-99.99,,2013-07-13 06:08:00,
2013-07-13 02:14:00,68.0,66.2,30.01,NE,55,10.4,-999.9,94,-99.99,,,-99.99,,2013-07-13 06:14:00,
2013-07-13 02:20:00,68.0,66.2,30.01,NE,55,10.4,-999.9,94,-99.99,,,-99.99,,2013-07-13 06:20:00,
2013-07-13 02:26:00,68.0,66.2,30.01,ENE,60,5.8,-999.9,94,-99.99,,,-99.99,,2013-07-13 06:26:00,
2013-07-13 02:32:00,68.0,68.0,30.01,NE,54,3.5,-999.9,100,-99.99,,,-99.99,,2013-07-13 06:32:00,
2013-07-13 02:38:00,68.0,68.0,30.01,NE,54,3.5,-999.9,100,-99.99,,,-99.99,,2013-07-13 06:38:00,
2013-07-13 02:44:00,69.8,69.8,30.01,NE,48,6.9,-999.9,100,-99.99,,,-99.99,,2013-07-13 06:44:00,
2013-07-13 02:50:00,69.8,69.8,30.01,NE,48,6.9,-999.9,100,-99.99,,,-99.99,,2013-07-13 06:50:00,
2013-07-13 02:56:00,68.0,68.0,30.00,NE,55,11.5,-999.9,100,-99.99,,,-99.99,,2013-07-13 06:56:00,
2013-07-13 03:02:00,68.0,68.0,30.00,ENE,58,6.9,-999.9,100,-99.99,,,-99.99,,2013-07-13 07:02:00,
2013-07-13 03:08:00,68.0,68.0,30.00,ENE,58,6.9,-999.9,100,-99.99,,,-99.99,,2013-07-13 07:08:00,
2013-07-13 03:14:00,68.0,68.0,30.00,NE,53,8.1,-999.9,100,-99.99,,,-99.99,,2013-07-13 07:14:00,
2013-07-13 03:20:00,68.0,68.0,30.00,ENE,58,6.9,-999.9,100,-99.99,,,-99.99,,2013-07-13 07:20:00,
2013-07-13 03:26:00,68.0,68.0,30.00,ENE,58,6.9,-999.9,100,-99.99,,,-99.99,,2013-07-13 07:26:00,
2013-07-13 03:32:00,68.0,68.0,30.01,East,83,5.8,-999.9,100,-99.99,,,-99.99,,2013-07-13 07:32:00,
2013-07-13 03:38:00,68.0,68.0,30.01,East,83,5.8,-999.9,100,-99.99,,,-99.99,,2013-07-13 07:38:00,
2013-07-13 03:44:00,68.0,68.0,30.01,NE,55,10.4,-999.9,100,-99.99,,,-99.99,,2013-07-13 07:44:00,
2013-07-13 03:50:00,68.0,68.0,30.01,NE,55,10.4,-999.9,100,-99.99,,,-99.99,,2013-07-13 07:50:00,
2013-07-13 03:56:00,68.0,68.0,30.01,ENE,59,9.2,-999.9,100,-99.99,,,-99.99,,2013-07-13 07:56:00,
2013-07-13 04:02:00,68.0,68.0,30.01,NE,50,11.5,-999.9,100,-99.99,,,-99.99,,2013-07-13 08:02:00,
2013-07-13 04:08:00,68.0,68.0,30.01,NE,50,11.5,-999.9,100,-99.99,,,-99.99,,2013-07-13 08:08:00,
2013-07-13 04:14:00,68.0,68.0,30.02,NE,54,9.2,-999.9,100,-99.99,,,-99.99,,2013-07-13 08:14:00,
2013-07-13 04:20:00,68.0,68.0,30.02,NE,54,9.2,-999.9,100,-99.99,,,-99.99,,2013-07-13 08:20:00,
2013-07-13 04:26:00,69.8,69.8,30.02,ENE,70,3.5,-999.9,100,-99.99,,,-99.99,,2013-07-13 08:26:00,
2013-07-13 04:32:00,69.8,69.8,30.02,ENE,67,2.3,-999.9,100,-99.99,,,-99.99,,2013-07-13 08:32:00,
2013-07-13 04:38:00,69.8,69.8,30.02,ENE,67,2.3,-999.9,100,-99.99,,,-99.99,,2013-07-13 08:38:00,
2013-07-13 04:44:00,69.8,69.8,30.03,ENE,77,5.8,-999.9,100,-99.99,,,-99.99,,2013-07-13 08:44:00,
2013-07-13 04:50:00,69.8,69.8,30.03,ENE,77,5.8,-999.9,100,-99.99,,,-99.99,,2013-07-13 08:50:00,
2013-07-13 04:56:00,69.8,69.8,30.03,ENE,65,6.9,-999.9,100,-99.99,,,-99.99,,2013-07-13 08:56:00,
2013-07-13 05:02:00,69.8,69.8,30.03,ENE,77,4.6,-999.9,100,-99.99,,,-99.99,,2013-07-13 09:02:00,
2013-07-13 05:08:00,69.8,69.8,30.03,ENE,77,4.6,-999.9,100,-99.99,,,-99.99,,2013-07-13 09:08:00,
2013-07-13 05:14:00,69.8,69.8,30.03,ENE,58,6.9,-999.9,100,-99.99,,,-99.99,,2013-07-13 09:14:00,
2013-07-13 05:20:00,69.8,69.8,30.03,ENE,58,6.9,-999.9,100,-99.99,,,-99.99,,2013-07-13 09:20:00,
2013-07-13 05:26:00,69.8,69.8,30.04,NE,55,8.1,-999.9,100,-99.99,,,-99.99,,2013-07-13 09:26:00,
2013-07-13 05:32:00,69.8,69.8,30.03,ENE,63,11.5,-999.9,100,-99.99,,,-99.99,,2013-07-13 09:32:00,
2013-07-13 05:38:00,69.8,69.8,30.03,ENE,63,11.5,-999.9,100,-99.99,,,-99.99,,2013-07-13 09:38:00,
2013-07-13 05:44:00,69.8,69.8,30.04,NE,56,10.4,-999.9,100,-99.99,,,-99.99,,2013-07-13 09:44:00,
2013-07-13 05:50:00,69.8,69.8,30.04,NE,56,10.4,-999.9,100,-99.99,,,-99.99,,2013-07-13 09:50:00,
2013-07-13 05:56:00,69.8,69.8,30.04,ENE,62,4.6,-999.9,100,-99.99,,,-99.99,,2013-07-13 09:56:00,
2013-07-13 06:02:00,69.8,69.8,30.04,ENE,62,9.2,-999.9,100,-99.99,,,-99.99,,2013-07-13 10:02:00,
2013-07-13 06:08:00,69.8,69.8,30.04,ENE,62,9.2,-999.9,100,-99.99,,,-99.99,,2013-07-13 10:08:00,
2013-07-13 06:14:00,69.8,69.8,30.05,NE,48,12.7,-999.9,100,-99.99,,,-99.99,,2013-07-13 10:14:00,
2013-07-13 06:20:00,69.8,69.8,30.05,NE,48,12.7,-999.9,100,-99.99,,,-99.99,,2013-07-13 10:20:00,
2013-07-13 06:26:00,69.8,69.8,30.06,NE,53,9.2,-999.9,100,-99.99,,,-99.99,,2013-07-13 10:26:00,
2013-07-13 06:32:00,69.8,69.8,30.06,ENE,57,8.1,-999.9,100,-99.99,,,-99.99,,2013-07-13 10:32:00,
2013-07-13 06:38:00,69.8,69.8,30.06,ENE,57,8.1,-999.9,100,-99.99,,,-99.99,,2013-07-13 10:38:00,
2013-07-13 06:44:00,69.8,69.8,30.06,NE,42,10.4,-999.9,100,-99.99,,,-99.99,,2013-07-13 10:44:00,
2013-07-13 06:50:00,69.8,69.8,30.06,NE,42,10.4,-999.9,100,-99.99,,,-99.99,,2013-07-13 10:50:00,
2013-07-13 06:56:00,69.8,69.8,30.07,ENE,64,6.9,-999.9,100,-99.99,,,-99.99,,2013-07-13 10:56:00,
2013-07-13 07:02:00,69.8,69.8,30.07,NE,52,10.4,-999.9,100,-99.99,,,-99.99,,2013-07-13 11:02:00,
2013-07-13 07:08:00,69.8,69.8,30.07,NE,52,10.4,-999.9,100,-99.99,,,-99.99,,2013-07-13 11:08:00,
2013-07-13 07:14:00,69.8,69.8,30.07,ENE,58,10.4,-999.9,100,-99.99,,,-99.99,,2013-07-13 11:14:00,
2013-07-13 07:20:00,69.8,69.8,30.07,ENE,58,10.4,-999.9,100,-99.99,,,-99.99,,2013-07-13 11:20:00,
2013-07-13 07:26:00,69.8,69.8,30.07,ENE,57,9.2,-999.9,100,-99.99,,,-99.99,,2013-07-13 11:26:00,
2013-07-13 07:32:00,69.8,69.8,30.07,NE,46,10.4,-999.9,100,-99.99,,,-99.99,,2013-07-13 11:32:00,
2013-07-13 07:38:00,69.8,69.8,30.07,NE,46,10.4,-999.9,100,-99.99,,,-99.99,,2013-07-13 11:38:00,
2013-07-13 07:44:00,69.8,69.8,30.07,ENE,58,8.1,-999.9,100,-99.99,,,-99.99,,2013-07-13 11:44:00,
2013-07-13 07:50:00,69.8,69.8,30.07,ENE,58,8.1,-999.9,100,-99.99,,,-99.99,,2013-07-13 11:50:00,
2013-07-13 07:56:00,69.8,69.8,30.08,ENE,58,10.4,-999.9,100,-99.99,,,-99.99,,2013-07-13 11:56:00,
2013-07-13 08:02:00,69.8,69.8,30.09,NE,45,17.3,-999.9,100,-99.99,,,-99.99,,2013-07-13 12:02:00,
2013-07-13 08:08:00,69.8,69.8,30.09,NE,45,17.3,-999.9,100,-99.99,,,-99.99,,2013-07-13 12:08:00,
2013-07-13 08:14:00,69.8,69.8,30.09,NE,52,12.7,-999.9,100,-99.99,,,-99.99,,2013-07-13 12:14:00,
2013-07-13 08:20:00,69.8,69.8,30.09,NE,52,12.7,-999.9,100,-99.99,,,-99.99,,2013-07-13 12:20:00,
2013-07-13 08:26:00,69.8,69.8,30.09,NE,41,11.5,-999.9,100,-99.99,,,-99.99,,2013-07-13 12:26:00,
2013-07-13 08:32:00,69.8,69.8,30.10,NE,46,13.8,-999.9,100,-99.99,,,-99.99,,2013-07-13 12:32:00,
2013-07-13 08:38:00,69.8,69.8,30.10,NE,46,13.8,-999.9,100,-99.99,,,-99.99,,2013-07-13 12:38:00,
2013-07-13 08:44:00,69.8,69.8,30.10,NE,47,11.5,-999.9,100,-99.99,,,-99.99,,2013-07-13 12:44:00,
2013-07-13 08:50:00,69.8,69.8,30.10,NE,47,11.5,-999.9,100,-99.99,,,-99.99,,2013-07-13 12:50:00,
2013-07-13 08:56:00,69.8,69.8,30.11,NE,48,8.1,-999.9,100,-99.99,,,-99.99,,2013-07-13 12:56:00,
2013-07-13 09:02:00,69.8,69.8,30.11,NE,46,9.2,-999.9,100,-99.99,,,-99.99,,2013-07-13 13:02:00,
2013-07-13 09:08:00,69.8,69.8,30.11,NE,46,9.2,-999.9,100,-99.99,,,-99.99,,2013-07-13 13:08:00,
2013-07-13 09:14:00,71.6,71.6,30.11,NE,45,12.7,-999.9,100,-99.99,,,-99.99,,2013-07-13 13:14:00,
2013-07-13 09:20:00,71.6,71.6,30.11,NE,45,12.7,-999.9,100,-99.99,,,-99.99,,2013-07-13 13:20:00,
2013-07-13 09:26:00,71.6,71.6,30.11,NE,44,12.7,-999.9,100,-99.99,,,-99.99,,2013-07-13 13:26:00,
2013-07-13 09:32:00,71.6,71.6,30.11,NE,55,13.8,-999.9,100,-99.99,,,-99.99,,2013-07-13 13:32:00,
2013-07-13 09:38:00,71.6,71.6,30.11,NE,55,13.8,-999.9,100,-99.99,,,-99.99,,2013-07-13 13:38:00,
2013-07-13 09:44:00,71.6,71.6,30.11,NE,50,8.1,-999.9,100,-99.99,,,-99.99,,2013-07-13 13:44:00,
2013-07-13 09:50:00,71.6,71.6,30.11,NE,50,8.1,-999.9,100,-99.99,,,-99.99,,2013-07-13 13:50:00,
2013-07-13 09:56:00,71.6,71.6,30.11,NE,53,5.8,-999.9,100,-99.99,,,-99.99,,2013-07-13 13:56:00,
2013-07-13 10:02:00,71.6,71.6,30.11,NE,51,12.7,-999.9,100,-99.99,,,-99.99,,2013-07-13 14:02:00,
2013-07-13 10:08:00,71.6,71.6,30.11,NE,51,12.7,-999.9,100,-99.99,,,-99.99,,2013-07-13 14:08:00,
2013-07-13 10:14:00,71.6,69.8,30.11,NE,56,11.5,-999.9,94,-99.99,,,-99.99,,2013-07-13 14:14:00,
2013-07-13 10:20:00,71.6,69.8,30.11,NE,56,11.5,-999.9,94,-99.99,,,-99.99,,2013-07-13 14:20:00,
2013-07-13 10:26:00,71.6,69.8,30.11,NE,50,9.2,-999.9,94,-99.99,,,-99.99,,2013-07-13 14:26:00,
2013-07-13 10:32:00,71.6,69.8,30.11,NE,45,16.1,-999.9,94,-99.99,,,-99.99,,2013-07-13 14:32:00,
2013-07-13 10:38:00,71.6,69.8,30.11,NE,45,16.1,-999.9,94,-99.99,,,-99.99,,2013-07-13 14:38:00,
2013-07-13 10:44:00,71.6,69.8,30.11,NE,43,18.4,-999.9,94,-99.99,,,-99.99,,2013-07-13 14:44:00,
2013-07-13 10:50:00,71.6,69.8,30.11,NE,43,18.4,-999.9,94,-99.99,,,-99.99,,2013-07-13 14:50:00,
2013-07-13 10:56:00,71.6,69.8,30.12,NE,55,12.7,-999.9,94,-99.99,,,-99.99,,2013-07-13 14:56:00,
2013-07-13 11:02:00,71.6,69.8,30.11,NE,53,9.2,-999.9,94,-99.99,,,-99.99,,2013-07-13 15:02:00,
2013-07-13 11:08:00,71.6,69.8,30.11,NE,53,9.2,-999.9,94,-99.99,,,-99.99,,2013-07-13 15:08:00,
2013-07-13 11:14:00,71.6,69.8,30.11,NE,49,12.7,-999.9,94,-99.99,,,-99.99,,2013-07-13 15:14:00,
2013-07-13 11:20:00,71.6,69.8,30.11,NE,49,12.7,-999.9,94,-99.99,,,-99.99,,2013-07-13 15:20:00,
2013-07-13 11:26:00,71.6,69.8,30.11,ENE,60,6.9,-999.9,94,-99.99,,,-99.99,,2013-07-13 15:26:00,
2013-07-13 11:32:00,71.6,69.8,30.11,NE,40,11.5,-999.9,94,-99.99,,,-99.99,,2013-07-13 15:32:00,
2013-07-13 11:38:00,71.6,69.8,30.11,NE,40,11.5,-999.9,94,-99.99,,,-99.99,,2013-07-13 15:38:00,
2013-07-13 11:44:00,73.4,69.8,30.11,NE,43,18.4,-999.9,88,-99.99,,,-99.99,,2013-07-13 15:44:00,
2013-07-13 11:50:00,73.4,69.8,30.11,NE,43,18.4,-999.9,88,-99.99,,,-99.99,,2013-07-13 15:50:00,
2013-07-13 11:56:00,73.4,69.8,30.11,NE,56,13.8,-999.9,88,-99.99,,,-99.99,,2013-07-13 15:56:00,
2013-07-13 12:02:00,73.4,69.8,30.11,NE,45,15.0,-999.9,88,-99.99,,,-99.99,,2013-07-13 16:02:00,
2013-07-13 12:08:00,73.4,69.8,30.11,NE,45,15.0,-999.9,88,-99.99,,,-99.99,,2013-07-13 16:08:00,
2013-07-13 12:14:00,73.4,69.8,30.11,NE,41,15.0,-999.9,88,-99.99,,,-99.99,,2013-07-13 16:14:00,
2013-07-13 12:20:00,73.4,69.8,30.11,NE,41,15.0,-999.9,88,-99.99,,,-99.99,,2013-07-13 16:20:00,
2013-07-13 12:26:00,75.2,71.6,30.11,NE,39,19.6,-999.9,89,-99.99,,,-99.99,,2013-07-13 16:26:00,
2013-07-13 12:32:00,73.4,69.8,30.11,NE,40,21.9,-999.9,88,-99.99,,,-99.99,,2013-07-13 16:32:00,
2013-07-13 12:38:00,73.4,69.8,30.11,NE,40,21.9,-999.9,88,-99.99,,,-99.99,,2013-07-13 16:38:00,
2013-07-13 12:44:00,73.4,69.8,30.11,NE,43,15.0,-999.9,88,-99.99,,,-99.99,,2013-07-13 16:44:00,
2013-07-13 12:50:00,73.4,69.8,30.11,NE,43,15.0,-999.9,88,-99.99,,,-99.99,,2013-07-13 16:50:00,
2013-07-13 12:56:00,73.4,69.8,30.11,NE,45,21.9,-999.9,88,-99.99,,,-99.99,,2013-07-13 16:56:00,
2013-07-13 13:02:00,73.4,69.8,30.11,NE,52,19.6,-999.9,88,-99.99,,,-99.99,,2013-07-13 17:02:00,
2013-07-13 13:08:00,73.4,69.8,30.11,NE,52,19.6,-999.9,88,-99.99,,,-99.99,,2013-07-13 17:08:00,
2013-07-13 13:14:00,75.2,71.6,30.11,NE,38,19.6,-999.9,89,-99.99,,,-99.99,,2013-07-13 17:14:00,
2013-07-13 13:20:00,75.2,71.6,30.11,NE,38,19.6,-999.9,89,-99.99,,,-99.99,,2013-07-13 17:20:00,
2013-07-13 13:26:00,73.4,69.8,30.11,NE,45,16.1,-999.9,88,-99.99,,,-99.99,,2013-07-13 17:26:00,
2013-07-13 13:32:00,75.2,71.6,30.11,NE,53,12.7,-999.9,89,-99.99,,,-99.99,,2013-07-13 17:32:00,
2013-07-13 13:38:00,75.2,71.6,30.11,NE,53,12.7,-999.9,89,-99.99,,,-99.99,,2013-07-13 17:38:00,
2013-07-13 13:44:00,75.2,71.6,30.11,ENE,61,12.7,-999.9,89,-99.99,,,-99.99,,2013-07-13 17:44:00,
2013-07-13 13:50:00,75.2,71.6,30.11,ENE,61,12.7,-999.9,89,-99.99,,,-99.99,,2013-07-13 17:50:00,
2013-07-13 13:56:00,75.2,71.6,30.11,ENE,59,9.2,-999.9,89,-99.99,,,-99.99,,2013-07-13 17:56:00,
2013-07-13 14:02:00,75.2,69.8,30.11,NE,50,17.3,-999.9,83,-99.99,,,-99.99,,2013-07-13 18:02:00,
2013-07-13 14:08:00,75.2,69.8,30.11,NE,50,17.3,-999.9,83,-99.99,,,-99.99,,2013-07-13 18:08:00,
2013-07-13 14:14:00,75.2,71.6,30.10,NE,50,11.5,-999.9,89,-99.99,,,-99.99,,2013-07-13 18:14:00,
2013-07-13 14:20:00,75.2,71.6,30.10,NE,50,11.5,-999.9,89,-99.99,,,-99.99,,2013-07-13 18:20:00,
2013-07-13 14:26:00,75.2,71.6,30.11,NE,49,16.1,-999.9,89,-99.99,,,-99.99,,2013-07-13 18:26:00,
2013-07-13 14:32:00,75.2,71.6,30.11,NE,46,13.8,-999.9,89,-99.99,,,-99.99,,2013-07-13 18:32:00,
2013-07-13 14:38:00,75.2,71.6,30.11,NE,46,13.8,-999.9,89,-99.99,,,-99.99,,2013-07-13 18:38:00,
2013-07-13 14:44:00,75.2,71.6,30.11,NE,47,13.8,-999.9,89,-99.99,,,-99.99,,2013-07-13 18:44:00,
2013-07-13 14:50:00,75.2,71.6,30.11,NE,47,13.8,-999.9,89,-99.99,,,-99.99,,2013-07-13 18:50:00,
2013-07-13 14:56:00,75.2,71.6,30.11,NE,43,15.0,-999.9,89,-99.99,,,-99.99,,2013-07-13 18:56:00,
2013-07-13 15:02:00,75.2,71.6,30.11,NE,51,20.7,-999.9,89,-99.99,,,-99.99,,2013-07-13 19:02:00,
2013-07-13 15:08:00,75.2,71.6,30.11,NE,51,20.7,-999.9,89,-99.99,,,-99.99,,2013-07-13 19:08:00,
2013-07-13 15:14:00,75.2,71.6,30.11,NE,52,19.6,-999.9,89,-99.99,,,-99.99,,2013-07-13 19:14:00,
2013-07-13 15:20:00,75.2,71.6,30.11,NE,52,19.6,-999.9,89,-99.99,,,-99.99,,2013-07-13 19:20:00,
2013-07-13 15:26:00,73.4,69.8,30.11,NE,47,19.6,-999.9,88,-99.99,,,-99.99,,2013-07-13 19:26:00,
2013-07-13 15:32:00,73.4,71.6,30.11,NE,43,19.6,-999.9,94,-99.99,,,-99.99,,2013-07-13 19:32:00,
2013-07-13 15:38:00,73.4,71.6,30.11,NE,43,19.6,-999.9,94,-99.99,,,-99.99,,2013-07-13 19:38:00,
2013-07-13 15:44:00,73.4,69.8,30.11,NE,43,13.8,-999.9,88,-99.99,,,-99.99,,2013-07-13 19:44:00,
2013-07-13 15:50:00,73.4,69.8,30.11,NE,43,13.8,-999.9,88,-99.99,,,-99.99,,2013-07-13 19:50:00,
2013-07-13 15:56:00,73.4,69.8,30.11,NE,50,19.6,-999.9,88,-99.99,,,-99.99,,2013-07-13 19:56:00,
2013-07-13 16:02:00,75.2,71.6,30.11,NE,50,17.3,-999.9,89,-99.99,,,-99.99,,2013-07-13 20:02:00,
2013-07-13 16:08:00,75.2,71.6,30.11,NE,50,17.3,-999.9,89,-99.99,,,-99.99,,2013-07-13 20:08:00,
2013-07-13 16:14:00,73.4,71.6,30.10,NE,42,18.4,-999.9,94,-99.99,,,-99.99,,2013-07-13 20:14:00,
2013-07-13 16:20:00,73.4,71.6,30.10,NE,42,18.4,-999.9,94,-99.99,,,-99.99,,2013-07-13 20:20:00,
2013-07-13 16:26:00,73.4,69.8,30.11,NE,42,16.1,-999.9,88,-99.99,,,-99.99,,2013-07-13 20:26:00,
2013-07-13 16:32:00,73.4,71.6,30.11,NE,52,9.2,-999.9,94,-99.99,,,-99.99,,2013-07-13 20:32:00,
2013-07-13 16:38:00,73.4,71.6,30.11,NE,52,9.2,-999.9,94,-99.99,,,-99.99,,2013-07-13 20:38:00,
2013-07-13 16:44:00,73.4,71.6,30.11,NE,48,19.6,-999.9,94,-99.99,,,-99.99,,2013-07-13 20:44:00,
2013-07-13 16:50:00,73.4,71.6,30.11,NE,48,19.6,-999.9,94,-99.99,,,-99.99,,2013-07-13 20:50:00,
2013-07-13 16:56:00,73.4,69.8,30.11,NE,48,15.0,-999.9,88,-99.99,,,-99.99,,2013-07-13 20:56:00,
2013-07-13 17:02:00,75.2,71.6,30.11,NE,56,12.7,-999.9,89,-99.99,,,-99.99,,2013-07-13 21:02:00,
2013-07-13 17:08:00,75.2,71.6,30.11,NE,56,12.7,-999.9,89,-99.99,,,-99.99,,2013-07-13 21:08:00,
2013-07-13 17:14:00,75.2,71.6,30.11,NE,47,15.0,-999.9,89,-99.99,,,-99.99,,2013-07-13 21:14:00,
2013-07-13 17:20:00,75.2,71.6,30.11,NE,47,15.0,-999.9,89,-99.99,,,-99.99,,2013-07-13 21:20:00,
2013-07-13 17:26:00,73.4,69.8,30.12,NE,43,13.8,-999.9,88,-99.99,,,-99.99,,2013-07-13 21:26:00,
2013-07-13 17:32:00,73.4,71.6,30.12,NE,47,15.0,-999.9,94,-99.99,,,-99.99,,2013-07-13 21:32:00,
2013-07-13 17:38:00,73.4,71.6,30.12,NE,47,15.0,-999.9,94,-99.99,,,-99.99,,2013-07-13 21:38:00,
2013-07-13 17:44:00,73.4,71.6,30.12,NE,47,13.8,-999.9,94,-99.99,,,-99.99,,2013-07-13 21:44:00,
2013-07-13 17:50:00,73.4,71.6,30.12,NE,47,13.8,-999.9,94,-99.99,,,-99.99,,2013-07-13 21:50:00,
2013-07-13 17:56:00,73.4,71.6,30.12,NE,51,12.7,-999.9,94,-99.99,,,-99.99,,2013-07-13 21:56:00,
2013-07-13 18:02:00,73.4,71.6,30.13,NE,56,6.9,-999.9,94,-99.99,,,-99.99,,2013-07-13 22:02:00,
2013-07-13 18:08:00,73.4,71.6,30.13,NE,56,6.9,-999.9,94,-99.99,,,-99.99,,2013-07-13 22:08:00,
2013-07-13 18:14:00,73.4,71.6,30.13,NE,47,11.5,-999.9,94,-99.99,,,-99.99,,2013-07-13 22:14:00,
2013-07-13 18:20:00,73.4,71.6,30.13,NE,47,11.5,-999.9,94,-99.99,,,-99.99,,2013-07-13 22:20:00,
2013-07-13 18:26:00,73.4,71.6,30.13,NE,44,4.6,-999.9,94,-99.99,,,-99.99,,2013-07-13 22:26:00,
2013-07-13 18:32:00,73.4,71.6,30.14,NE,46,11.5,-999.9,94,-99.99,,,-99.99,,2013-07-13 22:32:00,
2013-07-13 18:38:00,73.4,71.6,30.14,NE,46,11.5,-999.9,94,-99.99,,,-99.99,,2013-07-13 22:38:00,
2013-07-13 18:44:00,75.2,71.6,30.13,NE,56,6.9,-999.9,89,-99.99,,,-99.99,,2013-07-13 22:44:00,
2013-07-13 18:50:00,75.2,71.6,30.13,NE,56,6.9,-999.9,89,-99.99,,,-99.99,,2013-07-13 22:50:00,
2013-07-13 18:56:00,75.2,71.6,30.13,NE,47,4.6,-999.9,89,-99.99,,,-99.99,,2013-07-13 22:56:00,
2013-07-13 19:02:00,75.2,71.6,30.13,NNE,29,9.2,-999.9,89,-99.99,,,-99.99,,2013-07-13 23:02:00,
2013-07-13 19:08:00,75.2,71.6,30.13,NNE,29,9.2,-999.9,89,-99.99,,,-99.99,,2013-07-13 23:08:00,
2013-07-13 19:14:00,77.0,73.4,30.13,ENE,65,3.5,-999.9,89,-99.99,,,-99.99,,2013-07-13 23:14:00,
2013-07-13 19:20:00,77.0,73.4,30.13,ENE,65,3.5,-999.9,89,-99.99,,,-99.99,,2013-07-13 23:20:00,
2013-07-13 19:26:00,75.2,71.6,30.13,ENE,66,5.8,-999.9,89,-99.99,,,-99.99,,2013-07-13 23:26:00,
2013-07-13 19:32:00,75.2,71.6,30.14,NNE,25,4.6,-999.9,89,-99.99,,,-99.99,,2013-07-13 23:32:00,
2013-07-13 19:38:00,75.2,71.6,30.14,NNE,25,4.6,-999.9,89,-99.99,,,-99.99,,2013-07-13 23:38:00,
2013-07-13 19:44:00,75.2,71.6,30.14,NE,35,9.2,-999.9,89,-99.99,,,-99.99,,2013-07-13 23:44:00,
2013-07-13 19:50:00,75.2,71.6,30.14,NE,35,9.2,-999.9,89,-99.99,,,-99.99,,2013-07-13 23:50:00,
2013-07-13 19:56:00,75.2,71.6,30.14,NNE,21,6.9,-999.9,89,-99.99,,,-99.99,,2013-07-13 23:56:00,
2013-07-13 20:02:00,75.2,71.6,30.14,NNE,20,9.2,-999.9,89,-99.99,,,-99.99,,2013-07-14 00:02:00,
2013-07-13 20:08:00,75.2,71.6,30.14,NNE,20,9.2,-999.9,89,-99.99,,,-99.99,,2013-07-14 00:08:00,
2013-07-13 21:02:00,73.4,71.6,30.15,North,359,6.9,-999.9,94,-99.99,,,-99.99,,2013-07-14 01:02:00,
2013-07-13 21:08:00,73.4,71.6,30.15,North,359,6.9,-999.9,94,-99.99,,,-99.99,,2013-07-14 01:08:00,
2013-07-13 21:14:00,73.4,71.6,30.15,East,87,0.0,-999.9,94,-99.99,,,-99.99,,2013-07-14 01:14:00,
2013-07-13 21:20:00,73.4,71.6,30.15,East,87,0.0,-999.9,94,-99.99,,,-99.99,,2013-07-14 01:20:00,
2013-07-13 21:26:00,73.4,71.6,30.15,ENE,62,4.6,-999.9,94,-99.99,,,-99.99,,2013-07-14 01:26:00,
2013-07-13 21:32:00,73.4,71.6,30.15,ENE,59,3.5,-999.9,94,-99.99,,,-99.99,,2013-07-14 01:32:00,
2013-07-13 21:38:00,73.4,71.6,30.15,ENE,59,3.5,-999.9,94,-99.99,,,-99.99,,2013-07-14 01:38:00,
2013-07-13 21:44:00,73.4,71.6,30.15,NE,52,2.3,-999.9,94,-99.99,,,-99.99,,2013-07-14 01:44:00,
2013-07-13 21:50:00,73.4,71.6,30.15,NE,52,2.3,-999.9,94,-99.99,,,-99.99,,2013-07-14 01:50:00,
2013-07-13 21:56:00,73.4,71.6,30.15,ENE,61,3.5,-999.9,94,-99.99,,,-99.99,,2013-07-14 01:56:00,
2013-07-13 22:02:00,73.4,71.6,30.16,NE,35,5.8,-999.9,94,-99.99,,,-99.99,,2013-07-14 02:02:00,
2013-07-13 22:08:00,73.4,71.6,30.16,NE,35,5.8,-999.9,94,-99.99,,,-99.99,,2013-07-14 02:08:00,
2013-07-13 22:14:00,73.4,71.6,30.16,NE,36,3.5,-999.9,94,-99.99,,,-99.99,,2013-07-14 02:14:00,
2013-07-13 22:20:00,73.4,71.6,30.16,NE,36,3.5,-999.9,94,-99.99,,,-99.99,,2013-07-14 02:20:00,
2013-07-13 22:26:00,73.4,71.6,30.16,NE,41,6.9,-999.9,94,-99.99,,,-99.99,,2013-07-14 02:26:00,
2013-07-13 22:32:00,73.4,71.6,30.16,NE,38,1.2,-999.9,94,-99.99,,,-99.99,,2013-07-14 02:32:00,
2013-07-13 22:38:00,73.4,71.6,30.16,NE,38,1.2,-999.9,94,-99.99,,,-99.99,,2013-07-14 02:38:00,
2013-07-13 22:44:00,73.4,71.6,30.16,North,0,0.0,-999.9,94,-99.99,,,-99.99,,2013-07-14 02:44:00,
2013-07-13 22:50:00,73.4,71.6,30.16,North,0,0.0,-999.9,94,-99.99,,,-99.99,,2013-07-14 02:50:00,
2013-07-13 22:56:00,73.4,71.6,30.16,NE,43,3.5,-999.9,94,-99.99,,,-99.99,,2013-07-14 02:56:00,
2013-07-13 23:02:00,73.4,71.6,30.16,ENE,59,5.8,-999.9,94,-99.99,,,-99.99,,2013-07-14 03:02:00,
2013-07-13 23:08:00,73.4,71.6,30.16,ENE,59,5.8,-999.9,94,-99.99,,,-99.99,,2013-07-14 03:08:00,
2013-07-13 23:14:00,73.4,71.6,30.16,NE,44,9.2,-999.9,94,-99.99,,,-99.99,,2013-07-14 03:14:00,
2013-07-13 23:20:00,73.4,71.6,30.16,NE,44,9.2,-999.9,94,-99.99,,,-99.99,,2013-07-14 03:20:00,
2013-07-13 23:26:00,73.4,71.6,30.16,East,86,1.2,-999.9,94,-99.99,,,-99.99,,2013-07-14 03:26:00,
2013-07-13 23:32:00,73.4,71.6,30.16,NE,55,0.0,-999.9,94,-99.99,,,-99.99,,2013-07-14 03:32:00,
2013-07-13 23:38:00,73.4,71.6,30.16,NE,55,0.0,-999.9,94,-99.99,,,-99.99,,2013-07-14 03:38:00,
2013-07-13 23:44:00,73.4,71.6,30.16,NE,48,0.0,-999.9,94,-99.99,,,-99.99,,2013-07-14 03:44:00,
2013-07-13 23:50:00,73.4,71.6,30.16,NE,48,0.0,-999.9,94,-99.99,,,-99.99,,2013-07-14 03:50:00,
2013-07-13 23:56:00,73.4,71.6,30.16,ENE,69,0.0,-999.9,94,-99.99,,,-99.99,,2013-07-14 03:56:00,